Time;durP1;ratioP1;P1;durP2;ratioP2;P2;SDS_P1;SDS_P2;PMS_P1;PMS_P2;Temp;Humidity;BMP_temperature;BMP_pressure;BME280_temperature;BME280_humidity;BME280_pressure;Samples;Min_cycle;Max_cycle;Signal;HPM_P1;HPM_P2
2021/01/14 00:01:04;;;;;;;8.13;2.07;;;4.50;99.90;;;;;;5008712;28;20199;-84
2021/01/14 00:03:30;;;;;;;5.40;1.60;;;4.50;99.90;;;;;;5009769;28;20223;-84
2021/01/14 00:05:56;;;;;;;4.33;2.03;;;4.50;99.90;;;;;;5009892;28;20234;-84
2021/01/14 00:08:23;;;;;;;7.83;1.90;;;4.40;99.90;;;;;;5009934;28;20203;-84
2021/01/14 00:10:49;;;;;;;8.83;2.43;;;4.40;99.90;;;;;;5009997;28;20207;-84
2021/01/14 00:13:16;;;;;;;9.50;2.50;;;4.40;99.90;;;;;;5009627;28;20508;-84
2021/01/14 00:15:42;;;;;;;6.03;1.80;;;4.40;99.90;;;;;;5008634;28;20208;-83
2021/01/14 00:18:09;;;;;;;4.63;1.87;;;4.30;99.90;;;;;;5009941;28;20227;-84
2021/01/14 00:20:35;;;;;;;4.90;1.60;;;4.30;99.90;;;;;;5009126;28;20206;-83
2021/01/14 00:23:01;;;;;;;7.57;2.23;;;4.30;99.90;;;;;;5008871;28;20332;-80
2021/01/14 00:25:27;;;;;;;3.90;1.73;;;4.30;99.90;;;;;;5008945;28;20210;-84
2021/01/14 00:27:54;;;;;;;4.10;1.30;;;4.30;99.90;;;;;;5009511;28;20206;-84
2021/01/14 00:30:26;;;;;;;3.77;1.63;;;4.30;99.90;;;;;;5010357;28;20200;-84
2021/01/14 00:32:53;;;;;;;4.53;1.70;;;4.30;99.90;;;;;;5008036;28;20196;-84
2021/01/14 00:35:19;;;;;;;5.40;1.70;;;4.20;99.90;;;;;;5010172;28;20196;-84
2021/01/14 00:37:51;;;;;;;7.03;1.50;;;4.20;99.90;;;;;;5009621;28;20231;-83
2021/01/14 00:40:18;;;;;;;4.37;1.20;;;4.20;99.90;;;;;;5009311;28;20199;-84
2021/01/14 00:42:45;;;;;;;9.40;1.83;;;4.20;99.90;;;;;;5007891;28;20192;-83
2021/01/14 00:45:11;;;;;;;6.13;2.00;;;4.20;99.90;;;;;;5009722;28;20203;-83
2021/01/14 00:47:39;;;;;;;6.03;1.77;;;4.20;99.90;;;;;;5008874;28;20215;-84
2021/01/14 00:50:06;;;;;;;7.27;2.00;;;4.30;99.90;;;;;;5009416;28;20203;-84
2021/01/14 00:52:33;;;;;;;3.97;1.10;;;4.20;99.90;;;;;;5009451;28;20298;-83
2021/01/14 00:54:59;;;;;;;6.17;1.63;;;4.20;99.90;;;;;;5009052;28;20207;-83
2021/01/14 00:57:25;;;;;;;5.70;1.87;;;4.20;99.90;;;;;;5009325;28;20202;-82
2021/01/14 00:59:51;;;;;;;8.70;2.23;;;4.10;99.90;;;;;;5009071;28;20231;-84
2021/01/14 01:02:18;;;;;;;3.87;1.63;;;4.10;99.90;;;;;;5009377;28;20204;-84
2021/01/14 01:04:45;;;;;;;5.57;1.67;;;4.10;99.90;;;;;;5009590;28;20199;-83
2021/01/14 01:07:12;;;;;;;6.43;1.40;;;4.10;99.90;;;;;;5009241;28;20944;-83
2021/01/14 01:09:39;;;;;;;12.47;2.03;;;4.10;99.90;;;;;;5008902;28;20948;-83
2021/01/14 01:12:06;;;;;;;4.00;1.83;;;4.10;99.90;;;;;;5005624;28;20306;-84
2021/01/14 01:14:32;;;;;;;5.23;1.23;;;4.10;99.90;;;;;;5002907;28;20218;-82
2021/01/14 01:16:58;;;;;;;6.27;1.40;;;4.10;99.90;;;;;;5004315;28;20202;-83
2021/01/14 01:19:25;;;;;;;10.33;1.60;;;4.10;99.90;;;;;;5011370;28;20254;-84
2021/01/14 01:21:52;;;;;;;6.70;1.40;;;4.10;99.90;;;;;;5012495;28;20211;-83
2021/01/14 01:24:18;;;;;;;5.33;1.60;;;4.10;99.90;;;;;;5012732;28;20218;-83
2021/01/14 01:26:49;;;;;;;4.90;1.20;;;4.10;99.90;;;;;;5009351;28;20251;-83
2021/01/14 01:29:16;;;;;;;7.00;2.37;;;4.00;99.90;;;;;;5006480;28;20195;-84
2021/01/14 01:31:42;;;;;;;5.03;1.23;;;4.00;99.90;;;;;;5006509;28;20211;-83
2021/01/14 01:34:08;;;;;;;4.07;1.30;;;4.00;99.90;;;;;;5007598;28;20238;-84
2021/01/14 01:36:34;;;;;;;3.07;1.43;;;4.00;99.90;;;;;;5007576;28;20194;-83
2021/01/14 01:39:02;;;;;;;2.57;0.90;;;4.00;99.90;;;;;;5006619;28;20646;-80
2021/01/14 01:41:28;;;;;;;4.87;1.30;;;4.00;99.90;;;;;;5006184;28;20203;-84
2021/01/14 01:43:54;;;;;;;2.13;1.10;;;4.00;99.90;;;;;;5005179;28;20215;-82
2021/01/14 01:46:25;;;;;;;5.50;1.60;;;3.90;99.90;;;;;;5006696;28;20211;-84
2021/01/14 01:48:53;;;;;;;4.37;1.93;;;3.90;99.90;;;;;;5007657;28;20892;-82
2021/01/14 01:51:20;;;;;;;6.03;1.70;;;3.90;99.90;;;;;;5007517;28;20211;-82
2021/01/14 01:53:47;;;;;;;6.07;1.60;;;3.90;99.90;;;;;;5008453;28;20203;-81
2021/01/14 01:56:16;;;;;;;1.80;1.10;;;3.90;99.90;;;;;;5008290;28;20293;-84
2021/01/14 01:58:43;;;;;;;5.07;1.27;;;3.90;99.90;;;;;;5009361;28;20227;-81
2021/01/14 02:01:09;;;;;;;3.90;1.27;;;3.90;99.90;;;;;;5005873;28;20294;-82
2021/01/14 02:03:35;;;;;;;1.47;1.00;;;3.80;99.90;;;;;;5005026;28;20199;-83
2021/01/14 02:06:02;;;;;;;5.10;1.90;;;3.80;99.90;;;;;;5004658;28;20346;-83
2021/01/14 02:08:44;;;;;;;8.17;1.93;;;3.80;99.90;;;;;;5006831;28;20199;-82
2021/01/14 02:11:14;;;;;;;4.33;1.43;;;3.80;99.90;;;;;;5012775;28;20199;-83
2021/01/14 02:13:47;;;;;;;3.53;1.00;;;3.70;99.90;;;;;;5010171;28;20208;-82
2021/01/14 02:16:14;;;;;;;2.97;0.80;;;3.70;99.90;;;;;;4990769;28;20204;-84
2021/01/14 02:18:42;;;;;;;3.27;1.07;;;3.80;99.90;;;;;;4992300;28;20316;-83
2021/01/14 02:21:11;;;;;;;3.10;0.80;;;3.80;99.90;;;;;;4992471;28;20266;-84
2021/01/14 02:23:44;;;;;;;2.83;0.90;;;3.70;99.90;;;;;;5002869;28;20215;-84
2021/01/14 02:26:15;;;;;;;1.37;0.87;;;3.70;99.90;;;;;;5011645;28;20191;-83
2021/01/14 02:28:44;;;;;;;2.20;1.00;;;3.70;99.90;;;;;;5010721;28;20207;-84
2021/01/14 02:31:12;;;;;;;3.43;1.10;;;3.70;99.90;;;;;;5010421;28;20277;-83
2021/01/14 02:33:38;;;;;;;3.80;1.17;;;3.70;99.90;;;;;;5011565;28;20397;-84
2021/01/14 02:36:05;;;;;;;2.13;1.10;;;3.70;99.90;;;;;;5011600;28;20274;-83
2021/01/14 02:38:31;;;;;;;2.67;0.77;;;3.70;99.90;;;;;;5010292;28;20235;-84
2021/01/14 02:40:58;;;;;;;2.03;0.87;;;3.70;99.90;;;;;;5011904;28;20271;-81
2021/01/14 02:43:25;;;;;;;3.47;1.10;;;3.60;99.90;;;;;;5011533;28;20207;-84
2021/01/14 02:45:52;;;;;;;1.80;0.80;;;3.60;99.90;;;;;;5010222;28;20211;-84
2021/01/14 02:48:22;;;;;;;5.13;1.07;;;3.60;99.90;;;;;;5011343;28;20627;-83
2021/01/14 02:50:54;;;;;;;2.67;1.07;;;3.60;99.90;;;;;;5011009;28;20199;-82
2021/01/14 02:53:22;;;;;;;2.23;0.60;;;3.60;99.90;;;;;;5008178;28;20223;-80
2021/01/14 02:55:51;;;;;;;3.27;0.80;;;3.60;99.90;;;;;;5005161;28;20338;-83
2021/01/14 02:58:17;;;;;;;2.27;0.80;;;3.50;99.90;;;;;;5013305;28;20226;-84
2021/01/14 03:00:45;;;;;;;2.83;0.83;;;3.50;99.90;;;;;;5015872;28;20239;-81
2021/01/14 03:03:11;;;;;;;2.27;0.90;;;3.50;99.90;;;;;;5014778;28;20274;-84
2021/01/14 03:05:37;;;;;;;3.33;1.27;;;3.50;99.90;;;;;;5010785;28;20227;-83
2021/01/14 03:08:03;;;;;;;2.37;0.90;;;3.50;99.90;;;;;;5010571;28;20234;-82
2021/01/14 03:10:30;;;;;;;0.90;0.53;;;3.40;99.90;;;;;;5010835;28;20195;-83
2021/01/14 03:12:57;;;;;;;2.80;1.00;;;3.50;99.90;;;;;;5010128;28;20700;-84
2021/01/14 03:15:23;;;;;;;2.60;1.07;;;3.40;99.90;;;;;;5010744;28;20191;-83
2021/01/14 03:17:50;;;;;;;3.57;1.00;;;3.40;99.90;;;;;;5010273;28;20229;-83
2021/01/14 03:20:17;;;;;;;2.43;1.10;;;3.40;99.90;;;;;;5009219;28;20207;-83
2021/01/14 03:22:43;;;;;;;3.83;1.10;;;3.40;99.90;;;;;;5009379;28;20674;-84
2021/01/14 03:25:11;;;;;;;3.87;0.83;;;3.30;99.90;;;;;;5010664;28;20555;-84
2021/01/14 03:27:38;;;;;;;2.47;0.93;;;3.40;99.90;;;;;;5008933;28;20265;-84
2021/01/14 03:30:07;;;;;;;3.30;1.20;;;3.40;99.90;;;;;;5010744;28;20203;-84
2021/01/14 03:32:33;;;;;;;1.80;1.30;;;3.40;99.90;;;;;;5010149;28;20207;-83
2021/01/14 03:35:01;;;;;;;2.93;0.70;;;3.30;99.90;;;;;;5009591;28;20238;-79
2021/01/14 03:37:27;;;;;;;3.47;0.90;;;3.30;99.90;;;;;;5008589;28;20207;-84
2021/01/14 03:39:53;;;;;;;2.13;0.97;;;3.30;99.90;;;;;;5009765;28;20234;-83
2021/01/14 03:42:21;;;;;;;2.07;0.83;;;3.30;99.90;;;;;;5010105;28;20209;-83
2021/01/14 03:44:48;;;;;;;1.70;1.07;;;3.30;99.90;;;;;;5007483;28;20207;-82
2021/01/14 03:47:15;;;;;;;1.57;0.90;;;3.30;99.90;;;;;;5009164;28;20576;-83
2021/01/14 03:49:42;;;;;;;1.80;1.07;;;3.30;99.90;;;;;;5009396;28;20305;-82
2021/01/14 03:52:11;;;;;;;3.90;1.20;;;3.30;99.90;;;;;;5008385;28;20199;-83
2021/01/14 03:54:37;;;;;;;2.70;1.33;;;3.20;99.90;;;;;;5008379;28;20561;-83
2021/01/14 03:57:04;;;;;;;4.20;1.00;;;3.20;99.90;;;;;;5009929;28;20211;-82
2021/01/14 03:59:30;;;;;;;2.93;0.93;;;3.20;99.90;;;;;;5008576;28;20219;-84
2021/01/14 04:02:06;;;;;;;3.80;1.10;;;3.20;99.90;;;;;;5008850;28;20650;-84
2021/01/14 04:04:33;;;;;;;3.07;0.87;;;3.10;99.90;;;;;;5009485;28;20293;-83
2021/01/14 04:06:59;;;;;;;1.77;1.00;;;3.20;99.90;;;;;;5028168;28;20202;-84
2021/01/14 04:09:27;;;;;;;2.87;0.97;;;3.20;99.90;;;;;;5028098;28;20195;-83
2021/01/14 04:11:54;;;;;;;2.10;0.90;;;3.20;99.90;;;;;;5027343;28;20575;-80
2021/01/14 04:14:20;;;;;;;3.77;1.30;;;3.20;99.90;;;;;;5011179;28;20207;-81
2021/01/14 04:16:49;;;;;;;2.23;1.00;;;3.20;99.90;;;;;;5005781;28;20318;-81
2021/01/14 04:19:15;;;;;;;4.83;1.40;;;3.10;99.90;;;;;;5005508;28;20223;-80
2021/01/14 04:21:42;;;;;;;2.23;0.97;;;3.10;99.90;;;;;;5005947;28;20967;-81
2021/01/14 04:24:08;;;;;;;4.07;1.10;;;3.10;99.90;;;;;;5006505;28;20203;-80
2021/01/14 04:26:35;;;;;;;4.57;1.33;;;3.10;99.90;;;;;;5004674;28;20743;-81
2021/01/14 04:29:02;;;;;;;3.53;1.47;;;3.10;99.90;;;;;;5004695;28;20214;-80
2021/01/14 04:31:28;;;;;;;3.13;1.10;;;3.10;99.90;;;;;;5005685;28;20207;-81
2021/01/14 04:33:55;;;;;;;6.07;2.40;;;3.00;99.90;;;;;;5005368;28;20211;-81
2021/01/14 04:36:21;;;;;;;5.13;1.17;;;3.00;99.90;;;;;;5006790;28;20538;-81
2021/01/14 04:38:47;;;;;;;3.73;1.20;;;3.10;99.90;;;;;;5005642;28;20289;-83
2021/01/14 04:41:18;;;;;;;6.00;1.43;;;3.00;99.90;;;;;;5006207;28;20211;-84
2021/01/14 04:43:46;;;;;;;4.80;1.23;;;3.10;99.90;;;;;;5007693;28;20561;-81
2021/01/14 04:46:14;;;;;;;5.33;1.50;;;3.10;99.90;;;;;;5007369;28;20214;-82
2021/01/14 04:48:42;;;;;;;2.03;0.93;;;3.10;99.90;;;;;;5009244;28;20203;-82
2021/01/14 04:51:09;;;;;;;7.97;1.23;;;3.10;99.90;;;;;;5008383;28;20195;-83
2021/01/14 04:53:37;;;;;;;2.53;1.03;;;3.10;99.90;;;;;;5010527;28;20504;-81
2021/01/14 04:56:06;;;;;;;2.80;1.27;;;3.10;99.90;;;;;;5011830;28;20200;-81
2021/01/14 04:58:34;;;;;;;3.07;1.13;;;3.00;99.90;;;;;;5012301;28;20234;-85
2021/01/14 05:01:05;;;;;;;4.40;1.23;;;3.10;99.90;;;;;;5010648;28;20207;-84
2021/01/14 05:03:34;;;;;;;5.37;1.27;;;3.00;99.90;;;;;;5012014;28;20286;-81
2021/01/14 05:06:02;;;;;;;4.60;1.20;;;3.00;99.90;;;;;;5011525;28;20274;-79
2021/01/14 05:08:30;;;;;;;5.70;1.20;;;3.00;99.90;;;;;;5010410;28;20203;-84
2021/01/14 05:10:57;;;;;;;5.33;1.20;;;3.10;99.90;;;;;;5010726;28;20298;-84
2021/01/14 05:13:24;;;;;;;5.90;1.10;;;3.10;99.90;;;;;;5011878;28;20265;-83
2021/01/14 05:15:51;;;;;;;3.37;1.30;;;3.10;99.90;;;;;;4993082;28;20270;-79
2021/01/14 05:18:18;;;;;;;4.27;1.10;;;3.10;99.90;;;;;;5010921;28;20749;-84
2021/01/14 05:20:44;;;;;;;2.63;1.00;;;3.20;99.90;;;;;;5011822;28;20242;-83
2021/01/14 05:23:12;;;;;;;7.73;1.60;;;3.20;99.90;;;;;;5011316;28;20219;-79
2021/01/14 05:25:51;;;;;;;5.30;1.17;;;3.20;99.90;;;;;;5010050;28;20203;-84
2021/01/14 05:28:19;;;;;;;5.87;1.13;;;3.30;99.90;;;;;;5011784;28;20227;-83
2021/01/14 05:30:46;;;;;;;4.37;1.00;;;3.20;99.90;;;;;;5011911;28;20290;-83
2021/01/14 05:33:13;;;;;;;6.53;1.57;;;3.20;99.90;;;;;;5010369;28;20205;-79
2021/01/14 05:35:50;;;;;;;5.90;1.23;;;3.20;99.90;;;;;;5009633;28;20199;-85
2021/01/14 05:38:27;;;;;;;5.90;1.37;;;3.20;99.90;;;;;;5011875;28;20222;-85
2021/01/14 05:43:50;;;;;;;4.57;1.47;;;3.10;99.90;;;;;;5009659;28;20210;-84
2021/01/14 05:46:18;;;;;;;4.13;1.07;;;3.10;99.90;;;;;;5011886;28;20211;-85
2021/01/14 05:48:45;;;;;;;4.60;1.10;;;3.10;99.90;;;;;;5011648;28;20569;-84
2021/01/14 05:51:21;;;;;;;10.57;2.30;;;3.10;99.90;;;;;;5009408;28;20214;-80
2021/01/14 05:53:56;;;;;;;4.50;1.00;;;3.10;99.90;;;;;;5010805;28;20551;-84
2021/01/14 05:56:33;;;;;;;4.77;1.43;;;3.00;99.90;;;;;;5010657;28;20234;-85
2021/01/14 05:59:00;;;;;;;4.67;1.20;;;3.00;99.90;;;;;;5009657;28;20238;-81
2021/01/14 06:01:26;;;;;;;3.13;1.17;;;3.00;99.90;;;;;;5010744;28;20594;-84
2021/01/14 06:03:53;;;;;;;1.97;0.90;;;3.10;99.90;;;;;;5009949;28;20211;-84
2021/01/14 06:06:20;;;;;;;4.33;1.30;;;3.10;99.90;;;;;;5009926;28;20231;-83
2021/01/14 06:08:47;;;;;;;6.10;1.33;;;3.00;99.90;;;;;;5009785;28;20198;-80
2021/01/14 06:11:21;;;;;;;2.97;1.00;;;3.10;99.90;;;;;;5010313;28;20203;-80
2021/01/14 06:13:47;;;;;;;6.37;1.40;;;3.00;99.90;;;;;;5009444;28;20231;-84
2021/01/14 06:16:13;;;;;;;6.83;2.03;;;3.00;99.90;;;;;;5009941;28;20265;-82
2021/01/14 06:18:40;;;;;;;4.60;1.20;;;3.00;99.90;;;;;;5009805;28;20631;-82
2021/01/14 06:21:07;;;;;;;4.37;2.33;;;3.00;99.90;;;;;;5009151;28;20215;-78
2021/01/14 06:23:49;;;;;;;8.70;1.67;;;3.00;99.90;;;;;;5008781;28;20222;-84
2021/01/14 06:26:28;;;;;;;5.40;1.40;;;3.00;99.90;;;;;;5007789;28;20207;-82
2021/01/14 06:28:56;;;;;;;4.80;1.30;;;3.00;99.90;;;;;;5008192;28;20199;-80
2021/01/14 06:31:26;;;;;;;2.53;1.30;;;3.00;99.90;;;;;;5006547;28;20587;-80
2021/01/14 06:33:54;;;;;;;2.83;1.00;;;3.00;99.90;;;;;;5006867;28;20841;-81
2021/01/14 06:36:34;;;;;;;3.90;1.40;;;2.90;99.90;;;;;;5007474;28;20286;-84
2021/01/14 06:39:12;;;;;;;10.23;1.77;;;2.90;99.90;;;;;;5006874;28;20231;-79
2021/01/14 06:41:39;;;;;;;11.20;2.50;;;2.90;99.90;;;;;;5007116;28;20682;-81
2021/01/14 06:44:08;;;;;;;7.60;1.13;;;3.00;99.90;;;;;;5006869;28;20475;-83
2021/01/14 06:46:35;;;;;;;2.87;1.30;;;3.00;99.90;;;;;;5005879;28;20757;-83
2021/01/14 06:49:11;;;;;;;3.67;1.77;;;3.00;99.90;;;;;;5006475;28;20706;-83
2021/01/14 06:51:53;;;;;;;4.23;1.73;;;3.00;99.90;;;;;;5007007;28;20211;-83
2021/01/14 06:54:21;;;;;;;8.23;3.27;;;3.00;99.90;;;;;;5005859;28;20199;-84
2021/01/14 06:56:52;;;;;;;4.50;1.27;;;3.00;99.90;;;;;;5006860;28;20203;-81
2021/01/14 06:59:18;;;;;;;8.13;1.50;;;3.00;99.90;;;;;;5007160;28;20872;-83
2021/01/14 07:01:57;;;;;;;6.63;1.30;;;3.10;99.90;;;;;;5005657;28;20226;-83
2021/01/14 07:04:36;;;;;;;3.50;1.77;;;3.00;99.90;;;;;;5007262;28;20577;-83
2021/01/14 07:07:18;;;;;;;8.60;1.40;;;3.00;99.90;;;;;;5007330;28;20207;-84
2021/01/14 07:10:05;;;;;;;12.87;4.87;;;3.00;99.90;;;;;;5006090;28;20248;-86
2021/01/14 07:12:34;;;;;;;9.40;3.37;;;3.00;99.90;;;;;;5005085;28;20609;-83
2021/01/14 07:15:05;;;;;;;7.27;2.07;;;2.90;99.90;;;;;;5004705;28;20265;-83
2021/01/14 07:17:33;;;;;;;4.87;1.40;;;3.00;99.90;;;;;;5006830;28;20200;-83
2021/01/14 07:20:00;;;;;;;2.83;1.33;;;2.90;99.90;;;;;;5007340;28;20234;-84
2021/01/14 07:22:28;;;;;;;3.53;1.40;;;2.90;99.90;;;;;;5005307;28;20215;-83
2021/01/14 07:24:57;;;;;;;4.77;1.20;;;2.90;99.90;;;;;;5006609;28;20215;-83
2021/01/14 07:27:24;;;;;;;7.70;2.53;;;2.80;99.90;;;;;;5006440;28;20218;-82
2021/01/14 07:29:51;;;;;;;6.33;1.50;;;2.80;99.90;;;;;;5006139;28;20206;-83
2021/01/14 07:32:17;;;;;;;3.70;1.30;;;2.80;99.90;;;;;;5004459;28;20199;-84
2021/01/14 07:34:44;;;;;;;3.50;1.67;;;2.80;99.90;;;;;;5004503;28;20203;-85
2021/01/14 07:37:12;;;;;;;4.33;2.17;;;2.80;99.90;;;;;;5010229;28;20210;-85
2021/01/14 07:39:52;;;;;;;4.90;1.73;;;2.80;99.90;;;;;;5009815;28;20218;-83
2021/01/14 07:42:24;;;;;;;5.20;1.50;;;2.80;99.90;;;;;;5006618;28;20447;-84
2021/01/14 07:44:52;;;;;;;7.23;1.90;;;2.70;99.90;;;;;;5004176;28;20333;-86
2021/01/14 07:47:30;;;;;;;5.53;1.60;;;2.70;99.90;;;;;;5005232;28;20210;-81
2021/01/14 08:07:32;;;;;;;8.67;3.13;;;2.70;99.90;;;;;;4836482;29;20300;-84
2021/01/14 08:10:00;;;;;;;5.73;2.70;;;2.80;99.90;;;;;;4867981;29;20200;-77
2021/01/14 08:12:29;;;;;;;6.73;2.67;;;2.80;99.90;;;;;;4867164;29;20746;-78
2021/01/14 08:14:55;;;;;;;8.70;2.40;;;2.80;99.90;;;;;;4868198;29;20299;-78
2021/01/14 08:17:24;;;;;;;6.87;2.50;;;2.80;99.90;;;;;;4867634;29;20216;-79
2021/01/14 08:19:51;;;;;;;5.53;2.33;;;2.80;99.90;;;;;;4867470;29;20235;-77
2021/01/14 08:22:17;;;;;;;6.30;2.50;;;2.80;99.90;;;;;;4867492;29;20264;-77
2021/01/14 08:24:52;;;;;;;7.97;2.30;;;2.90;99.90;;;;;;4867585;29;20211;-78
2021/01/14 08:27:30;;;;;;;7.93;1.80;;;2.90;99.90;;;;;;4870413;29;20192;-79
2021/01/14 08:29:59;;;;;;;6.37;1.87;;;2.90;99.90;;;;;;4871564;29;20389;-79
2021/01/14 08:32:30;;;;;;;4.37;1.93;;;3.00;99.90;;;;;;4872051;29;20208;-80
2021/01/14 08:34:57;;;;;;;4.53;1.70;;;3.00;99.90;;;;;;4893188;29;20730;-78
2021/01/14 08:37:32;;;;;;;6.03;2.03;;;3.00;99.90;;;;;;4908225;29;20231;-79
2021/01/14 08:40:03;;;;;;;7.57;1.83;;;3.00;99.90;;;;;;4907991;29;20233;-78
2021/01/14 08:42:33;;;;;;;7.00;2.00;;;3.00;99.90;;;;;;4907842;29;20968;-79
2021/01/14 08:45:11;;;;;;;7.70;2.13;;;3.00;99.90;;;;;;4935555;29;20228;-79
2021/01/14 08:47:59;;;;;;;8.27;2.43;;;3.10;99.90;;;;;;4946307;29;20209;-82
2021/01/14 08:50:40;;;;;;;7.23;2.23;;;3.10;99.90;;;;;;4969572;28;20631;-79
2021/01/14 08:53:07;;;;;;;6.50;2.70;;;3.10;99.90;;;;;;4987360;28;20208;-79
2021/01/14 08:55:35;;;;;;;8.50;1.77;;;3.10;99.90;;;;;;4988101;28;20219;-78
2021/01/14 08:58:05;;;;;;;7.07;2.37;;;3.20;99.90;;;;;;4977613;28;20220;-79
2021/01/14 09:00:33;;;;;;;6.90;1.73;;;3.20;99.90;;;;;;4986905;28;20879;-78
2021/01/14 09:02:59;;;;;;;9.77;2.03;;;3.20;99.90;;;;;;4987587;28;20235;-80
2021/01/14 09:05:27;;;;;;;5.50;2.17;;;3.20;99.90;;;;;;4987463;28;20192;-79
2021/01/14 09:08:09;;;;;;;4.83;1.67;;;3.30;99.90;;;;;;4987333;28;20218;-79
2021/01/14 09:10:47;;;;;;;9.73;2.10;;;3.30;99.90;;;;;;4987212;28;20204;-80
2021/01/14 09:13:15;;;;;;;4.47;1.30;;;3.30;99.90;;;;;;4986664;28;20291;-79
2021/01/14 09:15:42;;;;;;;5.70;1.70;;;3.30;99.90;;;;;;4986189;28;20872;-79
2021/01/14 09:18:08;;;;;;;5.13;1.60;;;3.30;99.90;;;;;;4985631;28;20204;-79
2021/01/14 09:20:35;;;;;;;6.17;1.47;;;3.30;99.90;;;;;;4985832;28;20832;-79
2021/01/14 09:23:24;;;;;;;5.33;1.93;;;3.30;99.90;;;;;;4986487;28;20289;-78
2021/01/14 09:25:54;;;;;;;9.33;2.13;;;3.30;99.90;;;;;;4987336;28;20239;-79
2021/01/14 09:28:25;;;;;;;6.80;1.60;;;3.30;99.90;;;;;;4986269;28;20235;-78
2021/01/14 09:30:56;;;;;;;4.90;1.90;;;3.40;99.90;;;;;;4986756;28;20236;-79
2021/01/14 09:33:27;;;;;;;5.93;2.13;;;3.40;99.90;;;;;;4986466;28;20291;-78
2021/01/14 09:36:05;;;;;;;5.00;1.80;;;3.40;99.90;;;;;;4986878;28;20209;-78
2021/01/14 09:38:46;;;;;;;5.40;1.70;;;3.50;99.90;;;;;;4986098;28;20200;-79
2021/01/14 09:41:18;;;;;;;7.23;2.00;;;3.50;99.90;;;;;;4987049;28;20250;-79
2021/01/14 09:43:48;;;;;;;5.03;2.20;;;3.60;99.90;;;;;;4985897;28;20772;-77
2021/01/14 09:46:14;;;;;;;4.87;1.73;;;3.60;99.90;;;;;;4986972;28;20211;-79
2021/01/14 09:48:41;;;;;;;8.90;2.47;;;3.60;99.90;;;;;;4986256;28;20204;-79
2021/01/14 09:51:11;;;;;;;5.00;1.73;;;3.60;99.90;;;;;;4986954;28;20204;-79
2021/01/14 09:53:42;;;;;;;6.30;2.97;;;3.70;99.90;;;;;;4985476;28;20785;-78
2021/01/14 09:56:13;;;;;;;7.23;1.87;;;3.70;99.90;;;;;;4985815;28;20315;-79
2021/01/14 09:58:44;;;;;;;9.67;2.00;;;3.80;99.90;;;;;;4986228;28;20215;-79
2021/01/14 10:01:13;;;;;;;7.73;2.07;;;3.70;99.90;;;;;;4986254;28;20664;-77
2021/01/14 10:03:45;;;;;;;7.73;2.13;;;3.70;99.90;;;;;;4985608;28;20203;-79
2021/01/14 10:06:12;;;;;;;3.73;1.50;;;3.80;99.90;;;;;;4992090;28;20231;-83
2021/01/14 10:08:40;;;;;;;5.27;1.70;;;3.80;99.90;;;;;;5006432;28;20230;-80
2021/01/14 10:11:06;;;;;;;6.93;2.47;;;3.90;99.90;;;;;;5005726;28;20195;-79
2021/01/14 10:13:33;;;;;;;8.13;2.57;;;3.90;99.90;;;;;;4995522;28;20825;-78
2021/01/14 10:16:10;;;;;;;5.93;1.73;;;3.90;99.90;;;;;;4985832;28;20231;-79
2021/01/14 10:18:36;;;;;;;4.67;1.73;;;3.90;99.90;;;;;;4984886;28;20214;-79
2021/01/14 10:21:04;;;;;;;5.97;2.00;;;3.90;99.90;;;;;;4985548;28;20212;-79
2021/01/14 10:23:30;;;;;;;5.87;2.13;;;4.00;99.90;;;;;;4985546;28;20216;-80
2021/01/14 10:25:57;;;;;;;6.93;1.83;;;4.00;99.90;;;;;;4985499;28;20207;-78
2021/01/14 10:28:24;;;;;;;5.60;1.70;;;4.00;99.90;;;;;;4986234;28;20216;-79
2021/01/14 10:30:51;;;;;;;3.57;1.97;;;4.00;99.90;;;;;;4985587;28;20555;-80
2021/01/14 10:33:18;;;;;;;3.67;1.90;;;4.00;99.90;;;;;;4986948;28;20203;-79
2021/01/14 10:35:53;;;;;;;6.17;1.93;;;4.00;99.90;;;;;;4986572;28;20207;-79
2021/01/14 10:38:20;;;;;;;5.07;2.07;;;4.00;99.90;;;;;;4986322;28;20199;-79
2021/01/14 10:40:48;;;;;;;4.73;2.13;;;4.00;99.90;;;;;;4986271;28;20573;-81
2021/01/14 10:43:15;;;;;;;6.97;3.00;;;4.00;99.90;;;;;;4986785;28;20212;-82
2021/01/14 10:45:43;;;;;;;5.30;2.30;;;4.00;99.90;;;;;;4985595;28;20278;-78
2021/01/14 10:48:11;;;;;;;6.67;2.47;;;4.00;99.90;;;;;;4985075;28;20207;-79
2021/01/14 10:50:44;;;;;;;5.80;2.33;;;4.00;99.90;;;;;;4980247;28;20914;-78
2021/01/14 10:53:10;;;;;;;8.73;2.47;;;4.00;99.90;;;;;;4965617;28;20212;-78
2021/01/14 10:55:36;;;;;;;7.97;3.00;;;4.00;99.90;;;;;;4984987;28;20204;-77
2021/01/14 10:58:04;;;;;;;11.57;3.63;;;4.00;99.90;;;;;;4974924;28;20216;-78
2021/01/14 11:00:35;;;;;;;6.40;2.57;;;4.00;99.90;;;;;;4964954;28;20232;-79
2021/01/14 11:03:03;;;;;;;7.97;2.70;;;4.00;99.90;;;;;;4966013;28;20197;-80
2021/01/14 11:05:45;;;;;;;5.97;2.90;;;4.00;99.90;;;;;;4966263;28;20217;-77
2021/01/14 11:08:13;;;;;;;6.87;2.90;;;4.00;99.90;;;;;;4998079;28;20202;-79
2021/01/14 11:10:39;;;;;;;8.03;3.30;;;3.90;99.90;;;;;;5004243;28;20206;-80
2021/01/14 11:13:07;;;;;;;6.50;3.07;;;3.90;99.90;;;;;;4997334;28;20192;-78
2021/01/14 11:15:33;;;;;;;4.80;3.17;;;3.90;99.90;;;;;;4983597;28;20226;-78
2021/01/14 11:18:01;;;;;;;6.30;3.23;;;3.90;99.90;;;;;;4983818;28;20199;-80
2021/01/14 11:20:28;;;;;;;7.93;3.43;;;3.90;99.90;;;;;;4997950;28;20222;-80
2021/01/14 11:22:55;;;;;;;7.17;2.87;;;3.90;99.90;;;;;;5002947;28;20944;-77
2021/01/14 11:25:21;;;;;;;7.23;3.13;;;3.90;99.90;;;;;;5003542;28;20203;-77
2021/01/14 11:27:47;;;;;;;6.63;3.00;;;3.90;99.90;;;;;;5002157;28;20659;-80
2021/01/14 11:30:15;;;;;;;7.57;3.03;;;3.90;99.90;;;;;;5003603;28;20911;-77
2021/01/14 11:32:41;;;;;;;7.50;3.40;;;3.90;99.90;;;;;;5003034;28;20211;-77
2021/01/14 11:35:09;;;;;;;6.27;3.27;;;3.80;99.90;;;;;;5002651;28;20636;-77
2021/01/14 11:37:35;;;;;;;4.90;3.23;;;3.90;99.90;;;;;;5001720;28;20218;-79
2021/01/14 11:40:03;;;;;;;6.53;3.03;;;3.90;99.90;;;;;;5002150;28;20219;-78
2021/01/14 11:42:30;;;;;;;7.77;3.27;;;3.90;99.90;;;;;;5001438;28;20234;-78
2021/01/14 11:44:56;;;;;;;6.83;3.33;;;3.90;99.90;;;;;;5002007;28;20207;-79
2021/01/14 11:47:22;;;;;;;7.37;3.00;;;3.80;99.90;;;;;;5003156;28;20235;-79
2021/01/14 11:49:48;;;;;;;7.63;3.47;;;3.80;99.90;;;;;;5002473;28;20191;-78
2021/01/14 11:52:15;;;;;;;7.33;3.23;;;3.80;99.90;;;;;;5003314;28;20203;-80
2021/01/14 11:54:42;;;;;;;5.13;3.00;;;3.80;99.90;;;;;;5003178;28;20313;-80
2021/01/14 11:57:10;;;;;;;5.60;3.33;;;3.90;99.90;;;;;;5002164;28;20211;-80
2021/01/14 11:59:36;;;;;;;8.23;3.47;;;3.80;99.90;;;;;;5002133;28;20231;-78
2021/01/14 12:02:03;;;;;;;6.97;3.03;;;3.80;99.90;;;;;;5001588;28;20211;-78
2021/01/14 12:04:29;;;;;;;10.20;4.20;;;3.80;99.90;;;;;;5001868;28;20207;-77
2021/01/14 12:06:56;;;;;;;5.13;3.50;;;3.80;99.90;;;;;;5002738;28;20246;-77
2021/01/14 12:09:22;;;;;;;9.17;4.47;;;3.80;99.90;;;;;;5003003;28;20542;-77
2021/01/14 12:11:52;;;;;;;5.70;3.03;;;3.90;99.90;;;;;;5003555;28;20277;-78
2021/01/14 12:14:20;;;;;;;7.43;2.93;;;3.80;99.90;;;;;;5003060;28;20196;-78
2021/01/14 12:16:46;;;;;;;5.47;2.70;;;3.90;99.90;;;;;;5001941;28;20193;-79
2021/01/14 12:19:12;;;;;;;7.77;3.30;;;3.90;99.90;;;;;;5003329;28;20647;-79
2021/01/14 12:21:39;;;;;;;7.47;3.43;;;3.90;99.90;;;;;;5002869;28;20227;-78
2021/01/14 12:24:05;;;;;;;5.23;3.13;;;3.90;99.90;;;;;;5002104;28;20218;-79
2021/01/14 12:26:32;;;;;;;5.97;3.53;;;3.90;99.90;;;;;;5002941;28;20204;-78
2021/01/14 12:28:58;;;;;;;5.87;3.13;;;3.90;99.90;;;;;;5002089;28;20211;-78
2021/01/14 12:31:25;;;;;;;5.30;3.57;;;3.90;99.90;;;;;;5001555;28;20234;-77
2021/01/14 12:33:51;;;;;;;6.00;4.03;;;3.90;99.90;;;;;;5001671;28;20219;-79
2021/01/14 12:36:18;;;;;;;4.33;3.23;;;3.90;99.90;;;;;;5001961;28;20207;-78
2021/01/14 12:38:44;;;;;;;8.10;3.90;;;3.90;99.90;;;;;;5000401;28;20195;-78
2021/01/14 12:41:10;;;;;;;6.50;3.53;;;3.90;99.90;;;;;;5001203;28;20600;-78
2021/01/14 12:43:37;;;;;;;10.13;4.03;;;3.80;99.90;;;;;;5000004;28;20637;-78
2021/01/14 12:46:04;;;;;;;8.80;3.73;;;3.80;99.90;;;;;;5001731;28;20211;-77
2021/01/14 12:48:31;;;;;;;6.53;4.27;;;3.70;99.90;;;;;;5001987;28;20211;-78
2021/01/14 12:50:57;;;;;;;6.87;3.47;;;3.70;99.90;;;;;;5001991;28;20206;-78
2021/01/14 12:53:23;;;;;;;7.03;3.87;;;3.70;99.90;;;;;;5001515;28;20200;-77
2021/01/14 12:55:49;;;;;;;6.43;3.90;;;3.70;99.90;;;;;;5001512;28;20203;-78
2021/01/14 12:58:16;;;;;;;8.47;3.90;;;3.70;99.90;;;;;;5001992;28;20219;-78
2021/01/14 13:00:45;;;;;;;6.67;4.23;;;3.60;99.90;;;;;;5001810;28;20285;-77
2021/01/14 13:03:11;;;;;;;7.33;4.50;;;3.60;99.90;;;;;;5000958;28;20219;-80
2021/01/14 13:05:44;;;;;;;9.20;4.33;;;3.50;99.90;;;;;;4999924;28;20199;-79
2021/01/14 13:08:10;;;;;;;7.40;3.93;;;3.50;99.90;;;;;;5002152;28;20214;-78
2021/01/14 13:10:36;;;;;;;7.57;4.13;;;3.50;99.90;;;;;;5002928;28;20204;-78
2021/01/14 13:13:02;;;;;;;7.00;4.13;;;3.50;99.90;;;;;;5000840;28;20207;-77
2021/01/14 13:15:29;;;;;;;9.43;5.70;;;3.50;99.90;;;;;;5006773;28;20203;-77
2021/01/14 13:17:55;;;;;;;8.07;4.50;;;3.50;99.90;;;;;;5006092;28;20208;-77
2021/01/14 13:20:21;;;;;;;7.63;4.73;;;3.50;99.90;;;;;;5005263;28;20273;-77
2021/01/14 13:22:48;;;;;;;11.27;5.40;;;3.60;99.90;;;;;;5005353;28;20226;-81
2021/01/14 13:25:15;;;;;;;8.20;4.67;;;3.60;99.90;;;;;;5007037;28;20250;-80